bureau de piste

METAR LFMD 291830Z AUTO VRB02KT 9999 NSC 14/11 Q1023 NOSIG

TAF LFMD 291400Z 2915/3015 17006KT CAVOK BECMG 2918/2920 VRB03KT BECMG 3009/3011 18005KT

INFORMATION ADDS - 1859 UTC 29 March 2017

Plus d’information sur les terrains : LFMD et VALBERG

Les commentaires sont clos.